Terminal Aerodrome Forecast
Issued by NWS

Home | Current Version | Previous Version | Text Only | Print | Product List | Glossary On
Versions: 1 2 3 4 5 6 7 8 9 10 11 12 13
000
FTUS42 KMLB 212300
TAFSFB
TAF
KSFB 212334Z 2200/2224 24013G20KT P6SM VCTS BKN040CB OVC110
     FM220200 15004KT P6SM FEW050 SCT250
     FM220600 20003KT P6SM FEW250
     FM221400 23004KT P6SM FEW040=

USA.gov is the U.S. government's official web portal to all federal, state and local government web resources and services.